Time;durP1;ratioP1;P1;durP2;ratioP2;P2;SDS_P1;SDS_P2;PMS_P1;PMS_P2;Temp;Humidity;BMP_temperature;BMP_pressure;BME280_temperature;BME280_humidity;BME280_pressure;Samples;Min_cycle;Max_cycle;Signal;HPM_P1;HPM_P2
2022/03/27 00:00:28;;;;;;;2.63;2.33;;;7.10;96.40;;;;;;6121348;23;20983;-70
2022/03/27 00:02:55;;;;;;;2.47;1.50;;;7.10;96.00;;;;;;6121150;23;20405;-71
2022/03/27 00:05:22;;;;;;;3.87;2.27;;;6.80;97.00;;;;;;6121494;23;20935;-71
2022/03/27 00:07:49;;;;;;;2.63;1.90;;;6.70;97.80;;;;;;6121164;23;20455;-72
2022/03/27 00:10:18;;;;;;;3.10;2.17;;;6.70;98.00;;;;;;6120318;23;20421;-71
2022/03/27 00:12:46;;;;;;;2.13;1.97;;;6.80;97.40;;;;;;6120712;23;20443;-71
2022/03/27 00:15:13;;;;;;;3.40;2.10;;;6.80;97.10;;;;;;6094653;23;20421;-71
2022/03/27 00:17:40;;;;;;;8.57;2.90;;;6.80;97.30;;;;;;6120776;23;20424;-71
2022/03/27 00:20:09;;;;;;;1.87;1.50;;;6.80;97.60;;;;;;6120160;23;20460;-71
2022/03/27 00:22:36;;;;;;;1.80;1.60;;;6.60;97.90;;;;;;6120957;23;20397;-71
2022/03/27 00:25:04;;;;;;;2.70;2.13;;;6.70;98.00;;;;;;6120751;23;20448;-70
2022/03/27 00:27:32;;;;;;;1.67;1.60;;;6.70;98.00;;;;;;6095482;23;20890;-73
2022/03/27 00:30:02;;;;;;;2.47;2.30;;;6.60;98.00;;;;;;6120983;23;20406;-71
2022/03/27 00:32:30;;;;;;;1.40;1.30;;;6.60;98.00;;;;;;6096211;23;20563;-71
2022/03/27 00:34:57;;;;;;;2.27;2.00;;;6.50;98.00;;;;;;6120910;23;20468;-71
2022/03/27 00:37:24;;;;;;;3.53;2.50;;;6.40;98.00;;;;;;6121273;23;20789;-72
2022/03/27 00:39:51;;;;;;;1.93;1.80;;;6.50;98.00;;;;;;6120816;23;20463;-71
2022/03/27 00:42:20;;;;;;;1.67;1.53;;;6.40;98.00;;;;;;6120815;23;20451;-71
2022/03/27 00:44:47;;;;;;;1.73;1.73;;;6.50;98.00;;;;;;6120777;23;20423;-70
2022/03/27 00:47:15;;;;;;;2.00;1.83;;;6.30;98.00;;;;;;6120320;23;20424;-71
2022/03/27 00:49:42;;;;;;;5.57;3.00;;;6.30;98.00;;;;;;6120639;23;20430;-71
2022/03/27 00:52:09;;;;;;;3.00;2.57;;;6.30;98.00;;;;;;6120998;23;21082;-71
2022/03/27 00:54:36;;;;;;;3.27;2.70;;;6.50;98.00;;;;;;6120989;23;20470;-72
2022/03/27 00:57:03;;;;;;;1.50;1.47;;;6.30;98.00;;;;;;6120506;23;20444;-71
2022/03/27 00:59:30;;;;;;;2.07;1.93;;;6.20;98.00;;;;;;6121118;23;20418;-71
2022/03/27 01:01:57;;;;;;;2.50;2.30;;;6.30;98.00;;;;;;6094583;23;20787;-72
2022/03/27 01:04:26;;;;;;;4.80;2.30;;;6.40;98.00;;;;;;6121389;23;20403;-70
2022/03/27 01:06:53;;;;;;;3.20;2.67;;;6.40;98.00;;;;;;6096144;23;20507;-71
2022/03/27 01:09:38;;;;;;;3.80;2.10;;;6.60;98.00;;;;;;6121381;23;20410;-72
2022/03/27 01:12:13;;;;;;;1.87;1.77;;;6.40;98.00;;;;;;6122071;23;20791;-71
2022/03/27 01:14:40;;;;;;;6.17;2.90;;;6.50;98.00;;;;;;6121513;23;20879;-70
2022/03/27 01:17:09;;;;;;;2.40;2.20;;;6.50;98.00;;;;;;6121739;23;20475;-71
2022/03/27 01:19:41;;;;;;;2.17;2.00;;;6.10;98.00;;;;;;6122012;23;20758;-71
2022/03/27 01:22:10;;;;;;;1.83;1.50;;;6.10;98.00;;;;;;6121845;23;20404;-71
2022/03/27 01:24:37;;;;;;;2.30;2.10;;;5.90;98.00;;;;;;6121727;23;20453;-71
2022/03/27 01:27:05;;;;;;;6.17;3.20;;;5.90;98.00;;;;;;6121542;23;20478;-70
2022/03/27 01:29:32;;;;;;;2.20;2.00;;;5.80;98.00;;;;;;6121330;23;20424;-71
2022/03/27 01:32:01;;;;;;;1.70;1.30;;;5.90;98.00;;;;;;6121990;23;20422;-71
2022/03/27 01:34:28;;;;;;;1.83;1.40;;;5.70;98.00;;;;;;6122001;23;20715;-71
2022/03/27 01:36:56;;;;;;;2.70;2.50;;;5.90;98.00;;;;;;6121568;23;20399;-70
2022/03/27 01:39:25;;;;;;;2.77;1.67;;;5.90;98.00;;;;;;6122008;23;20763;-71
2022/03/27 01:41:52;;;;;;;2.43;1.90;;;5.90;98.00;;;;;;6121661;23;20450;-70
2022/03/27 01:44:20;;;;;;;2.27;2.13;;;5.80;98.00;;;;;;6121924;23;20882;-71
2022/03/27 01:46:48;;;;;;;1.70;1.63;;;5.70;98.00;;;;;;6121759;23;20445;-71
2022/03/27 01:49:16;;;;;;;3.33;2.20;;;5.60;98.00;;;;;;6122120;23;20429;-70
2022/03/27 01:51:44;;;;;;;2.57;2.07;;;5.50;98.00;;;;;;6122231;23;20726;-71
2022/03/27 01:54:12;;;;;;;2.03;1.93;;;5.70;98.00;;;;;;6121425;23;20420;-71
2022/03/27 01:56:41;;;;;;;2.93;2.40;;;5.60;98.00;;;;;;6121906;23;20429;-70
2022/03/27 01:59:09;;;;;;;2.63;2.20;;;5.60;98.00;;;;;;6121746;23;20438;-71
2022/03/27 02:01:37;;;;;;;3.30;2.63;;;5.60;98.00;;;;;;6119855;23;20456;-71
2022/03/27 02:04:05;;;;;;;3.00;1.63;;;5.50;98.00;;;;;;6121770;23;20883;-71
2022/03/27 02:06:33;;;;;;;1.53;1.53;;;5.60;98.00;;;;;;6121209;23;20449;-71
2022/03/27 02:09:01;;;;;;;4.27;2.13;;;5.50;98.00;;;;;;6121367;23;20484;-70
2022/03/27 02:11:28;;;;;;;2.20;1.73;;;5.40;98.00;;;;;;6121694;23;20405;-70
2022/03/27 02:13:56;;;;;;;1.87;1.77;;;5.30;98.00;;;;;;6121357;23;20934;-72
2022/03/27 02:16:23;;;;;;;3.27;1.77;;;5.40;98.00;;;;;;6121742;23;20446;-71
2022/03/27 02:18:50;;;;;;;1.77;1.67;;;5.30;98.00;;;;;;6121874;23;20475;-71
2022/03/27 02:21:17;;;;;;;1.30;1.23;;;5.20;98.00;;;;;;6121484;23;20461;-70
2022/03/27 02:23:45;;;;;;;5.97;2.23;;;5.20;98.00;;;;;;6095663;23;20435;-71
2022/03/27 02:26:11;;;;;;;2.43;1.67;;;5.30;98.00;;;;;;6121323;23;20444;-71
2022/03/27 02:28:39;;;;;;;2.47;2.27;;;5.20;98.00;;;;;;6121782;23;20474;-70
2022/03/27 02:31:08;;;;;;;2.60;2.33;;;5.30;98.00;;;;;;6121909;23;20426;-72
2022/03/27 02:33:35;;;;;;;5.00;2.70;;;5.30;98.00;;;;;;6121847;23;20919;-70
2022/03/27 02:36:02;;;;;;;1.93;1.37;;;5.30;98.00;;;;;;6121553;23;20454;-72
2022/03/27 02:38:29;;;;;;;2.27;2.07;;;5.30;98.00;;;;;;6121780;23;20444;-72
2022/03/27 02:40:57;;;;;;;2.70;2.10;;;5.10;98.00;;;;;;6121727;23;20402;-71
2022/03/27 02:43:24;;;;;;;2.03;1.70;;;4.90;98.00;;;;;;6121688;23;20429;-71
2022/03/27 02:45:54;;;;;;;2.80;2.20;;;4.80;98.00;;;;;;6121325;23;21046;-71
2022/03/27 02:48:23;;;;;;;1.50;1.47;;;4.90;98.00;;;;;;6121334;23;20402;-70
2022/03/27 02:50:53;;;;;;;2.57;2.07;;;4.90;98.00;;;;;;6121534;23;20408;-71
2022/03/27 02:53:21;;;;;;;1.47;1.27;;;4.90;98.00;;;;;;6121303;23;20390;-70
2022/03/27 02:55:48;;;;;;;3.40;2.50;;;5.00;98.00;;;;;;6095995;23;20408;-70
2022/03/27 02:58:18;;;;;;;2.33;2.13;;;5.10;98.00;;;;;;6121245;23;20418;-70
2022/03/27 03:00:46;;;;;;;3.27;1.97;;;5.00;98.00;;;;;;6121553;23;20455;-71
2022/03/27 03:03:14;;;;;;;2.50;2.07;;;4.90;98.00;;;;;;6121210;23;20420;-72
2022/03/27 03:05:44;;;;;;;3.70;2.47;;;4.80;98.00;;;;;;6121760;23;20411;-71
2022/03/27 03:08:12;;;;;;;1.93;1.50;;;4.80;98.00;;;;;;6071974;23;20428;-70
2022/03/27 03:10:39;;;;;;;2.20;2.00;;;4.60;98.00;;;;;;6121869;23;20421;-71
2022/03/27 03:13:08;;;;;;;3.07;2.50;;;4.50;98.00;;;;;;6121536;23;20422;-70
2022/03/27 03:15:36;;;;;;;1.97;1.63;;;4.60;98.00;;;;;;6121672;23;20402;-70
2022/03/27 03:18:04;;;;;;;2.80;1.83;;;4.60;98.00;;;;;;6121315;23;20734;-70
2022/03/27 03:20:32;;;;;;;1.93;1.83;;;4.50;98.00;;;;;;6121985;23;20406;-70
2022/03/27 03:23:00;;;;;;;1.63;1.60;;;4.70;98.00;;;;;;6121773;23;20482;-71
2022/03/27 03:25:29;;;;;;;1.83;1.77;;;4.60;98.00;;;;;;6121207;23;20505;-69
2022/03/27 03:27:56;;;;;;;1.67;1.60;;;4.70;98.00;;;;;;6121899;23;20445;-70
2022/03/27 03:30:23;;;;;;;2.47;2.27;;;4.70;98.00;;;;;;6121682;23;20409;-69
2022/03/27 03:32:50;;;;;;;1.40;1.27;;;4.70;98.00;;;;;;6121316;23;20417;-70
2022/03/27 03:35:17;;;;;;;2.33;1.57;;;4.80;98.00;;;;;;6121478;23;20438;-71
2022/03/27 03:37:44;;;;;;;1.97;1.73;;;4.90;98.00;;;;;;6095619;23;20896;-70
2022/03/27 03:40:14;;;;;;;2.17;1.67;;;4.80;98.00;;;;;;6121501;23;20498;-70
2022/03/27 03:42:41;;;;;;;1.80;1.63;;;4.60;98.00;;;;;;6121306;23;20708;-70
2022/03/27 03:45:09;;;;;;;3.53;2.23;;;4.40;98.00;;;;;;6121262;23;20408;-70
2022/03/27 03:47:36;;;;;;;3.73;2.17;;;4.60;98.00;;;;;;6121460;23;20438;-70
2022/03/27 03:50:05;;;;;;;2.20;2.03;;;4.50;98.00;;;;;;6121099;23;20463;-70
2022/03/27 03:52:33;;;;;;;2.13;1.73;;;4.50;98.00;;;;;;6120917;23;20415;-70
2022/03/27 03:55:00;;;;;;;2.63;1.67;;;4.50;98.00;;;;;;6121484;23;20404;-70
2022/03/27 03:57:29;;;;;;;3.20;3.00;;;4.30;98.00;;;;;;6121453;23;20405;-70
2022/03/27 03:59:56;;;;;;;2.37;2.17;;;4.20;98.00;;;;;;6121349;23;20399;-71
2022/03/27 04:02:23;;;;;;;2.53;2.00;;;4.40;98.00;;;;;;6095611;23;20417;-69
2022/03/27 04:04:50;;;;;;;2.70;1.80;;;4.50;98.00;;;;;;6121267;23;20459;-70
2022/03/27 04:07:17;;;;;;;1.40;1.37;;;4.50;98.00;;;;;;6095580;23;20460;-71
2022/03/27 04:09:44;;;;;;;2.90;1.77;;;4.40;98.00;;;;;;6121245;23;20444;-69
2022/03/27 04:12:12;;;;;;;2.10;1.30;;;4.50;98.00;;;;;;6121138;23;20461;-70
2022/03/27 04:14:40;;;;;;;1.43;1.20;;;4.50;98.00;;;;;;6120480;23;20454;-70
2022/03/27 04:17:07;;;;;;;3.50;1.63;;;4.40;98.00;;;;;;6121580;23;20428;-70
2022/03/27 04:19:35;;;;;;;1.27;1.13;;;4.30;98.00;;;;;;6121292;23;20431;-70
2022/03/27 04:22:02;;;;;;;2.03;1.90;;;4.20;98.00;;;;;;6121093;23;20924;-70
2022/03/27 04:24:30;;;;;;;2.57;1.63;;;4.30;98.00;;;;;;6121404;23;20443;-69
2022/03/27 04:26:57;;;;;;;1.83;1.70;;;4.20;98.00;;;;;;6120994;23;20919;-70
2022/03/27 04:29:24;;;;;;;2.27;1.33;;;4.10;98.00;;;;;;6121010;23;20417;-70
2022/03/27 04:31:53;;;;;;;1.30;1.30;;;3.90;98.00;;;;;;6121265;23;20738;-70
2022/03/27 04:34:19;;;;;;;5.90;2.50;;;3.80;98.00;;;;;;6095261;23;20419;-69
2022/03/27 04:36:46;;;;;;;1.70;1.57;;;3.90;98.00;;;;;;6120703;23;20446;-70
2022/03/27 04:39:13;;;;;;;1.97;1.87;;;3.80;98.00;;;;;;6120570;23;20424;-69
2022/03/27 04:41:40;;;;;;;1.70;1.57;;;3.80;98.00;;;;;;6121077;23;20448;-69
2022/03/27 04:44:08;;;;;;;1.77;1.47;;;3.60;98.00;;;;;;6121244;23;20415;-69
2022/03/27 04:46:42;;;;;;;3.40;2.40;;;3.60;98.00;;;;;;6121352;23;20452;-70
2022/03/27 04:49:11;;;;;;;1.50;1.43;;;3.80;98.00;;;;;;6138119;23;20433;-69
2022/03/27 04:51:38;;;;;;;1.80;1.70;;;3.80;98.00;;;;;;6245016;22;20732;-71
2022/03/27 04:54:05;;;;;;;4.13;2.67;;;3.60;98.00;;;;;;6245036;22;20400;-70
2022/03/27 04:56:32;;;;;;;1.20;1.13;;;3.50;98.00;;;;;;6244771;22;20722;-70
2022/03/27 04:58:59;;;;;;;2.17;1.70;;;3.40;98.00;;;;;;6244930;22;20495;-69
2022/03/27 05:01:26;;;;;;;2.33;2.13;;;3.40;98.00;;;;;;6243590;23;20405;-69
2022/03/27 05:03:53;;;;;;;2.53;1.60;;;3.60;98.00;;;;;;6244867;22;21229;-69
2022/03/27 05:06:22;;;;;;;1.40;1.30;;;3.50;98.00;;;;;;6242962;23;20511;-69
2022/03/27 05:08:50;;;;;;;3.73;2.27;;;3.40;98.00;;;;;;6244969;22;20492;-69
2022/03/27 05:11:17;;;;;;;1.67;1.60;;;3.40;98.00;;;;;;6244673;22;20498;-70
2022/03/27 05:13:45;;;;;;;1.60;1.50;;;3.40;98.00;;;;;;6244832;22;20403;-69
2022/03/27 05:16:12;;;;;;;1.37;1.23;;;3.40;98.00;;;;;;6244113;22;20448;-69
2022/03/27 05:18:39;;;;;;;1.90;1.33;;;3.60;98.00;;;;;;6244721;22;20408;-70
2022/03/27 05:21:06;;;;;;;1.30;1.30;;;3.60;98.00;;;;;;6244654;22;20419;-70
2022/03/27 05:23:35;;;;;;;1.60;1.53;;;3.60;98.00;;;;;;6244753;22;20403;-70
2022/03/27 05:26:02;;;;;;;1.90;1.50;;;3.70;98.00;;;;;;6244843;22;20408;-71
2022/03/27 05:28:30;;;;;;;1.20;1.17;;;3.70;98.00;;;;;;6243934;22;20946;-70
2022/03/27 05:30:57;;;;;;;1.90;1.50;;;3.60;98.00;;;;;;6244724;22;20439;-70
2022/03/27 05:33:24;;;;;;;3.40;2.13;;;3.50;98.00;;;;;;6243713;22;20420;-71
2022/03/27 05:35:51;;;;;;;1.77;1.67;;;3.50;98.00;;;;;;6242159;23;20419;-70
2022/03/27 05:38:18;;;;;;;2.57;2.10;;;3.60;98.00;;;;;;6243979;22;20396;-70
2022/03/27 05:40:47;;;;;;;17.03;3.50;;;3.80;98.00;;;;;;6244191;22;20448;-70
2022/03/27 05:43:14;;;;;;;2.10;1.93;;;3.80;98.00;;;;;;6244838;22;20484;-69
2022/03/27 05:45:41;;;;;;;1.87;1.87;;;3.80;98.00;;;;;;6244588;22;20424;-70
2022/03/27 05:48:08;;;;;;;2.47;1.63;;;3.80;98.00;;;;;;6244643;22;20446;-70
2022/03/27 05:50:35;;;;;;;3.27;2.17;;;3.70;98.00;;;;;;6133258;22;20453;-70
2022/03/27 05:53:02;;;;;;;1.50;1.50;;;3.60;98.00;;;;;;6122063;23;20420;-70
2022/03/27 05:55:30;;;;;;;3.47;1.70;;;3.70;98.00;;;;;;6121144;23;20529;-70
2022/03/27 05:58:01;;;;;;;1.50;1.40;;;3.60;98.00;;;;;;6096179;23;20399;-70
2022/03/27 06:00:28;;;;;;;3.00;2.60;;;3.60;98.00;;;;;;6121337;23;20759;-69
2022/03/27 06:02:57;;;;;;;1.93;1.63;;;3.80;98.00;;;;;;6096415;23;20906;-70
2022/03/27 06:05:24;;;;;;;4.33;2.30;;;3.90;98.00;;;;;;6121587;23;20433;-70
2022/03/27 06:07:56;;;;;;;2.07;1.67;;;3.80;98.00;;;;;;6121375;23;20487;-70
2022/03/27 06:10:25;;;;;;;5.53;1.53;;;3.80;98.00;;;;;;6121847;23;20911;-70
2022/03/27 06:12:53;;;;;;;2.07;1.87;;;3.70;98.00;;;;;;6121791;23;20408;-70
2022/03/27 06:15:22;;;;;;;3.10;2.13;;;3.90;98.00;;;;;;6096281;23;20420;-69
2022/03/27 06:17:51;;;;;;;4.90;3.07;;;3.90;98.00;;;;;;6121632;23;20464;-70
2022/03/27 06:20:21;;;;;;;1.20;1.10;;;3.90;98.00;;;;;;6121747;23;20461;-70
2022/03/27 06:22:48;;;;;;;2.00;1.77;;;4.10;98.00;;;;;;6121634;23;20448;-70
2022/03/27 06:25:16;;;;;;;3.40;2.30;;;4.10;98.00;;;;;;6121590;23;20410;-70
2022/03/27 06:27:44;;;;;;;3.60;2.57;;;4.30;98.00;;;;;;6121600;23;20918;-70
2022/03/27 06:30:15;;;;;;;6.20;1.83;;;4.40;98.00;;;;;;6121449;23;20947;-70
2022/03/27 06:32:43;;;;;;;1.70;1.70;;;4.40;98.00;;;;;;6121914;23;20411;-70
2022/03/27 06:35:11;;;;;;;1.50;1.40;;;4.30;98.00;;;;;;6121374;23;20468;-70
2022/03/27 06:37:40;;;;;;;1.83;1.70;;;4.30;98.00;;;;;;6120771;23;20420;-70
2022/03/27 06:40:08;;;;;;;2.00;1.60;;;4.40;98.00;;;;;;6121221;23;20916;-70
2022/03/27 06:42:37;;;;;;;2.80;1.97;;;4.60;98.00;;;;;;6121652;23;20417;-70
2022/03/27 06:45:05;;;;;;;3.03;2.03;;;4.80;98.00;;;;;;6121486;23;20447;-70
2022/03/27 06:47:34;;;;;;;1.40;1.27;;;5.00;98.00;;;;;;6121471;23;20487;-71
2022/03/27 06:50:03;;;;;;;1.50;1.30;;;5.10;98.00;;;;;;6121349;23;20463;-70
2022/03/27 06:52:30;;;;;;;2.40;2.20;;;5.30;98.00;;;;;;6121891;23;20918;-71
2022/03/27 06:54:57;;;;;;;21.43;3.10;;;5.40;98.00;;;;;;6121666;23;20419;-70
2022/03/27 06:57:24;;;;;;;2.30;1.77;;;5.50;98.00;;;;;;6121974;23;20425;-70
2022/03/27 07:05:23;;;;;;;2.17;1.97;;;5.80;98.00;;;;;;6131291;23;20447;-70
2022/03/27 07:07:52;;;;;;;3.53;1.90;;;5.90;98.00;;;;;;6121557;23;20522;-73
2022/03/27 07:10:19;;;;;;;3.97;2.70;;;6.00;98.00;;;;;;6095296;23;20912;-68
2022/03/27 07:12:48;;;;;;;3.67;2.43;;;6.10;98.00;;;;;;6121172;23;20422;-68
2022/03/27 07:15:15;;;;;;;2.03;1.83;;;6.20;98.00;;;;;;6071147;23;20471;-68
2022/03/27 07:17:46;;;;;;;2.80;1.50;;;6.30;98.00;;;;;;6120860;23;20444;-68
2022/03/27 07:20:13;;;;;;;2.23;1.40;;;6.40;98.00;;;;;;6121234;23;20971;-68
2022/03/27 07:22:42;;;;;;;2.20;2.00;;;6.50;98.00;;;;;;6095686;23;20412;-71
2022/03/27 07:25:09;;;;;;;1.50;1.20;;;6.50;98.00;;;;;;6121303;23;20409;-71
2022/03/27 07:27:38;;;;;;;4.53;2.40;;;6.80;98.00;;;;;;6121038;23;20432;-71
2022/03/27 07:30:06;;;;;;;9.27;2.73;;;6.90;98.00;;;;;;6121554;23;20768;-69
2022/03/27 07:32:34;;;;;;;1.67;1.63;;;7.20;98.00;;;;;;6120793;23;21090;-69
2022/03/27 07:35:02;;;;;;;2.10;1.93;;;7.30;98.00;;;;;;6121472;23;20423;-69
2022/03/27 07:37:32;;;;;;;3.77;1.83;;;7.30;98.00;;;;;;6121288;23;20402;-69
2022/03/27 07:40:03;;;;;;;1.73;1.70;;;7.40;98.00;;;;;;6121430;23;20403;-69
2022/03/27 07:42:32;;;;;;;2.70;2.03;;;7.60;98.00;;;;;;6120998;23;20411;-70
2022/03/27 07:44:59;;;;;;;2.63;2.17;;;7.80;98.00;;;;;;6120917;23;20465;-69
2022/03/27 07:47:26;;;;;;;1.87;1.60;;;7.90;98.00;;;;;;6095499;23;20443;-69
2022/03/27 07:49:53;;;;;;;3.10;1.53;;;8.00;98.00;;;;;;6121268;23;20436;-68
2022/03/27 07:52:20;;;;;;;2.50;2.30;;;8.20;98.00;;;;;;6121446;23;20486;-69
2022/03/27 07:54:47;;;;;;;1.63;1.60;;;8.30;98.00;;;;;;6120803;23;20421;-69
2022/03/27 07:57:15;;;;;;;1.87;1.40;;;8.40;98.00;;;;;;6121344;23;20423;-69
2022/03/27 07:59:42;;;;;;;4.30;2.40;;;8.60;98.00;;;;;;6095442;23;20740;-70
2022/03/27 08:02:09;;;;;;;4.47;2.43;;;8.80;98.00;;;;;;6120841;23;20421;-70
2022/03/27 08:04:36;;;;;;;4.13;1.93;;;8.90;98.00;;;;;;6120854;23;20471;-69
2022/03/27 08:07:04;;;;;;;3.60;1.80;;;9.00;98.00;;;;;;6120712;23;20932;-69
2022/03/27 08:09:31;;;;;;;2.30;1.50;;;9.20;98.00;;;;;;6121112;23;20766;-70
2022/03/27 08:11:58;;;;;;;2.23;1.63;;;9.40;98.00;;;;;;6121020;23;20475;-70
2022/03/27 08:14:31;;;;;;;2.80;2.33;;;9.50;98.00;;;;;;6120693;23;20425;-70
2022/03/27 08:16:58;;;;;;;1.60;1.60;;;9.50;98.00;;;;;;6121130;23;20429;-70
2022/03/27 08:19:26;;;;;;;2.83;2.50;;;9.60;98.00;;;;;;6120689;23;20455;-70
2022/03/27 08:21:54;;;;;;;2.73;2.40;;;9.90;98.00;;;;;;6120769;23;20407;-70
2022/03/27 08:24:21;;;;;;;2.40;2.10;;;10.10;98.00;;;;;;6120740;23;21050;-69
2022/03/27 08:26:55;;;;;;;3.00;2.13;;;10.20;97.70;;;;;;6120688;23;20459;-70
2022/03/27 08:29:23;;;;;;;3.63;2.30;;;10.40;97.80;;;;;;6120731;23;20429;-70
2022/03/27 08:31:52;;;;;;;2.60;2.20;;;10.60;96.60;;;;;;6120986;23;20445;-70
2022/03/27 08:34:20;;;;;;;2.67;1.90;;;10.70;96.40;;;;;;6118533;23;20404;-71
2022/03/27 08:36:48;;;;;;;3.20;1.70;;;10.90;96.60;;;;;;6120325;23;20463;-70
2022/03/27 08:39:15;;;;;;;4.73;2.13;;;11.00;96.10;;;;;;6120069;23;20400;-69
2022/03/27 08:41:44;;;;;;;3.27;2.27;;;11.10;95.30;;;;;;6120334;23;20765;-68
2022/03/27 08:44:11;;;;;;;6.77;2.13;;;11.30;95.00;;;;;;6120265;23;20407;-69
2022/03/27 08:46:40;;;;;;;4.13;2.40;;;11.50;95.00;;;;;;6119764;23;20410;-69
2022/03/27 08:49:11;;;;;;;3.77;2.93;;;11.70;95.60;;;;;;6119652;23;20506;-68
2022/03/27 08:51:57;;;;;;;2.43;1.93;;;11.90;94.20;;;;;;6093825;23;20881;-69
2022/03/27 08:54:27;;;;;;;2.30;1.90;;;12.20;93.60;;;;;;6119607;23;20427;-68
2022/03/27 08:57:04;;;;;;;2.70;2.50;;;12.40;93.60;;;;;;6119703;23;20476;-68
2022/03/27 08:59:32;;;;;;;2.50;1.83;;;12.60;93.30;;;;;;6120077;23;20395;-68
2022/03/27 09:02:00;;;;;;;3.73;2.47;;;12.80;92.10;;;;;;6119601;23;20422;-68
2022/03/27 09:04:30;;;;;;;5.90;2.30;;;13.00;91.70;;;;;;6119638;23;20450;-68
2022/03/27 09:06:56;;;;;;;2.20;1.60;;;13.30;90.40;;;;;;6119767;23;20779;-69
2022/03/27 09:09:24;;;;;;;2.33;2.17;;;13.50;90.10;;;;;;6093562;23;20444;-69
2022/03/27 09:11:56;;;;;;;1.90;1.77;;;13.60;88.90;;;;;;6119806;23;20416;-69
2022/03/27 09:14:24;;;;;;;1.97;1.70;;;13.80;87.90;;;;;;6119755;23;20403;-68
2022/03/27 09:17:06;;;;;;;2.17;1.90;;;14.10;90.00;;;;;;6119692;23;20404;-69
2022/03/27 09:19:36;;;;;;;2.23;1.87;;;14.40;87.80;;;;;;6119362;23;20862;-68
2022/03/27 09:22:15;;;;;;;1.70;1.50;;;14.60;87.70;;;;;;6119527;23;20443;-68
2022/03/27 09:24:46;;;;;;;2.80;2.60;;;14.80;86.50;;;;;;6120495;23;20420;-68
2022/03/27 09:27:14;;;;;;;3.60;2.33;;;15.10;85.30;;;;;;6095707;23;20419;-68
2022/03/27 09:29:59;;;;;;;1.73;1.67;;;15.30;84.90;;;;;;6120824;23;20489;-69
2022/03/27 09:32:31;;;;;;;2.50;1.87;;;15.40;83.20;;;;;;6120634;23;20415;-69
2022/03/27 09:35:03;;;;;;;2.50;2.17;;;15.60;85.00;;;;;;6120532;23;20410;-69
2022/03/27 09:37:32;;;;;;;3.53;1.77;;;15.80;82.70;;;;;;6120569;23;20406;-68
2022/03/27 09:39:59;;;;;;;2.10;1.83;;;16.00;82.70;;;;;;6120584;23;20405;-68
2022/03/27 09:42:27;;;;;;;2.70;2.27;;;16.20;83.10;;;;;;6095511;23;20445;-68
2022/03/27 09:45:13;;;;;;;2.40;2.10;;;16.40;81.50;;;;;;6120884;23;20417;-68
2022/03/27 09:47:41;;;;;;;9.47;3.07;;;16.60;80.70;;;;;;6120068;23;20405;-68
2022/03/27 09:50:28;;;;;;;7.43;2.20;;;16.80;80.30;;;;;;6121176;23;20457;-69
2022/03/27 09:53:10;;;;;;;3.10;2.17;;;17.00;80.30;;;;;;6121860;23;20412;-69
2022/03/27 09:55:37;;;;;;;3.13;2.83;;;17.30;79.60;;;;;;6119957;23;20460;-69
2022/03/27 09:58:06;;;;;;;4.90;2.87;;;17.50;76.80;;;;;;6119312;23;20456;-70
2022/03/27 10:00:34;;;;;;;2.43;2.30;;;17.80;77.30;;;;;;6120192;23;20402;-70
2022/03/27 10:03:10;;;;;;;5.93;2.70;;;17.90;76.70;;;;;;6121851;23;20398;-69
2022/03/27 10:05:39;;;;;;;3.67;2.43;;;18.20;77.00;;;;;;6121551;23;20872;-70
2022/03/27 10:08:08;;;;;;;6.73;2.60;;;18.40;75.90;;;;;;6120540;23;20522;-67
2022/03/27 10:10:35;;;;;;;5.47;3.10;;;18.50;75.10;;;;;;6121146;23;20421;-67
2022/03/27 10:13:06;;;;;;;6.13;2.50;;;18.70;73.40;;;;;;6120955;23;20413;-69
2022/03/27 10:15:34;;;;;;;3.00;2.30;;;19.00;73.60;;;;;;6120837;23;20971;-68
2022/03/27 10:18:05;;;;;;;3.77;2.70;;;19.10;71.90;;;;;;6121662;23;20485;-68
2022/03/27 10:20:36;;;;;;;2.17;1.70;;;19.30;69.40;;;;;;6121582;23;20406;-69
2022/03/27 10:23:07;;;;;;;4.27;2.50;;;19.40;69.60;;;;;;6121033;23;20406;-68
2022/03/27 10:25:39;;;;;;;5.07;2.30;;;19.60;68.30;;;;;;6121652;23;20430;-68
2022/03/27 10:28:07;;;;;;;5.53;1.83;;;19.60;67.40;;;;;;6120852;23;20468;-68
2022/03/27 10:30:34;;;;;;;3.97;2.37;;;19.80;67.30;;;;;;6120694;23;20402;-68
2022/03/27 10:33:07;;;;;;;2.57;1.83;;;20.10;68.30;;;;;;6121574;23;20467;-69
2022/03/27 10:35:43;;;;;;;3.33;2.03;;;20.20;65.50;;;;;;6120812;23;20444;-69
2022/03/27 10:38:29;;;;;;;10.53;3.20;;;20.30;65.00;;;;;;6121760;23;20424;-69
2022/03/27 10:41:15;;;;;;;6.63;3.60;;;20.40;63.90;;;;;;6121314;23;20416;-68
2022/03/27 10:43:49;;;;;;;6.57;3.10;;;20.60;63.50;;;;;;6121964;23;20401;-69
2022/03/27 10:46:19;;;;;;;5.93;2.23;;;20.80;64.30;;;;;;6121304;23;20519;-69
2022/03/27 10:48:48;;;;;;;4.93;2.50;;;21.10;64.40;;;;;;6121222;23;20778;-69
2022/03/27 10:51:42;;;;;;;3.83;2.60;;;21.30;64.20;;;;;;6120986;23;20437;-69
2022/03/27 10:54:14;;;;;;;3.20;2.30;;;21.40;62.40;;;;;;6121637;23;20398;-69
2022/03/27 10:56:43;;;;;;;4.50;2.53;;;21.40;61.60;;;;;;6121553;23;20481;-70
2022/03/27 10:59:16;;;;;;;6.27;2.93;;;21.60;62.40;;;;;;6120436;23;20433;-69
2022/03/27 11:01:49;;;;;;;3.93;2.37;;;21.90;60.00;;;;;;6120693;23;20785;-69
2022/03/27 11:04:17;;;;;;;4.13;2.70;;;22.10;59.00;;;;;;6120130;23;20404;-70
2022/03/27 11:06:46;;;;;;;5.07;2.40;;;22.30;61.50;;;;;;6121000;23;20413;-70
2022/03/27 11:09:32;;;;;;;6.47;2.40;;;22.60;59.10;;;;;;6120168;23;20444;-69
2022/03/27 11:12:00;;;;;;;3.10;2.43;;;22.70;58.60;;;;;;6120992;23;20444;-70
2022/03/27 11:14:56;;;;;;;4.23;2.77;;;22.70;58.50;;;;;;6095975;23;20409;-69
2022/03/27 11:17:45;;;;;;;5.30;3.07;;;22.70;58.20;;;;;;6121066;23;20410;-69
2022/03/27 11:20:55;;;;;;;2.93;2.60;;;22.80;59.40;;;;;;6120958;23;20429;-69
2022/03/27 11:23:39;;;;;;;5.13;2.80;;;22.90;58.90;;;;;;6121554;23;20798;-69
2022/03/27 11:26:34;;;;;;;4.20;2.80;;;22.90;58.20;;;;;;6121373;23;20475;-70
2022/03/27 11:29:04;;;;;;;5.13;2.40;;;23.00;58.10;;;;;;6121544;23;20437;-69
2022/03/27 11:31:33;;;;;;;4.67;2.40;;;23.00;58.80;;;;;;6121323;23;20411;-69
2022/03/27 11:34:21;;;;;;;5.07;2.80;;;23.20;59.80;;;;;;6121476;23;20422;-69
2022/03/27 11:37:14;;;;;;;3.77;2.07;;;23.40;58.50;;;;;;6121764;23;20441;-69
2022/03/27 11:39:42;;;;;;;3.67;2.33;;;23.70;56.20;;;;;;6121136;23;20456;-69
2022/03/27 11:42:31;;;;;;;4.77;2.50;;;24.10;55.80;;;;;;6120664;23;20417;-68
2022/03/27 11:45:21;;;;;;;4.20;3.43;;;24.20;53.40;;;;;;6120588;23;20433;-68
2022/03/27 11:47:51;;;;;;;5.37;3.07;;;24.50;54.10;;;;;;6120559;23;20398;-68
2022/03/27 11:50:28;;;;;;;6.40;3.13;;;24.60;55.60;;;;;;6119555;23;21013;-68
2022/03/27 11:52:55;;;;;;;4.67;2.20;;;24.70;54.30;;;;;;6120990;23;20409;-69
2022/03/27 11:55:22;;;;;;;6.80;2.60;;;24.60;54.20;;;;;;6120683;23;20413;-69
2022/03/27 11:57:53;;;;;;;3.03;2.30;;;24.70;54.40;;;;;;6120707;23;20408;-69
2022/03/27 12:00:34;;;;;;;3.57;2.43;;;24.80;54.40;;;;;;6121005;23;20398;-69
2022/03/27 12:03:02;;;;;;;5.70;2.47;;;24.80;54.10;;;;;;6120325;23;20409;-69
2022/03/27 12:05:39;;;;;;;10.33;3.30;;;25.00;54.50;;;;;;6120753;23;20440;-69
2022/03/27 12:08:07;;;;;;;3.80;2.47;;;25.40;53.20;;;;;;6120570;23;20452;-69
2022/03/27 12:10:42;;;;;;;3.63;2.60;;;25.70;51.40;;;;;;6120512;23;20499;-69
2022/03/27 12:13:11;;;;;;;4.10;2.43;;;26.00;52.30;;;;;;6120649;23;20417;-69
2022/03/27 12:15:49;;;;;;;6.17;3.10;;;26.00;51.30;;;;;;6121347;23;20413;-69
2022/03/27 12:18:26;;;;;;;4.13;2.10;;;26.00;51.90;;;;;;6121106;23;20409;-69
2022/03/27 12:20:53;;;;;;;3.23;2.27;;;25.90;51.50;;;;;;6121042;23;20406;-69
2022/03/27 12:23:32;;;;;;;5.30;3.00;;;25.80;50.90;;;;;;6120759;23;20504;-69
2022/03/27 12:31:39;;;;;;;5.37;2.50;;;26.80;48.60;;;;;;6120930;23;20890;-69
2022/03/27 12:34:06;;;;;;;4.33;2.73;;;26.90;49.60;;;;;;6120791;23;20417;-69
2022/03/27 12:36:33;;;;;;;5.17;2.57;;;26.60;49.10;;;;;;6120733;23;20973;-69
2022/03/27 12:38:59;;;;;;;7.43;2.30;;;26.60;47.40;;;;;;6120729;23;20424;-69
2022/03/27 12:41:42;;;;;;;5.60;3.03;;;26.60;47.90;;;;;;6120687;23;20441;-69
2022/03/27 12:44:10;;;;;;;9.73;2.67;;;26.50;47.30;;;;;;6120517;23;20409;-69
2022/03/27 12:46:37;;;;;;;5.40;2.63;;;26.40;48.90;;;;;;6120518;23;20398;-69
2022/03/27 12:49:05;;;;;;;10.87;3.20;;;26.60;47.60;;;;;;6120359;23;20941;-69
2022/03/27 12:51:33;;;;;;;4.33;2.43;;;26.40;48.40;;;;;;6120390;23;20896;-69
2022/03/27 12:54:05;;;;;;;7.00;3.20;;;26.70;46.90;;;;;;6120511;23;20429;-69
2022/03/27 12:56:33;;;;;;;4.93;2.70;;;26.80;48.10;;;;;;6120649;23;20429;-69
2022/03/27 12:59:17;;;;;;;4.23;2.20;;;26.80;47.20;;;;;;6120061;23;20402;-69
2022/03/27 13:01:46;;;;;;;6.20;2.10;;;26.80;46.80;;;;;;6120502;23;20406;-69
2022/03/27 13:04:15;;;;;;;4.93;2.63;;;26.80;47.20;;;;;;6120889;23;20401;-69
2022/03/27 13:06:44;;;;;;;7.33;3.47;;;26.70;47.40;;;;;;6120532;23;20904;-69
2022/03/27 13:09:20;;;;;;;3.80;2.40;;;27.00;47.90;;;;;;6120734;23;20461;-69
2022/03/27 13:11:47;;;;;;;5.33;2.80;;;27.10;46.90;;;;;;6120536;23;20402;-69
2022/03/27 13:14:15;;;;;;;7.37;2.60;;;27.10;45.80;;;;;;6120685;23;20418;-69
2022/03/27 13:16:43;;;;;;;7.10;3.43;;;27.10;46.70;;;;;;6120325;23;20417;-71